sensor_id;sensor_type;location;lat;lon;timestamp;temperature;humidity
21259;DHT22;10787;53.364;-1.480;2023-06-01T00:01:09;11.40;99.90
21259;DHT22;10787;53.364;-1.480;2023-06-01T00:03:56;11.40;99.90
21259;DHT22;10787;53.364;-1.480;2023-06-01T00:06:40;11.40;99.90
21259;DHT22;10787;53.364;-1.480;2023-06-01T00:09:24;11.40;99.90
21259;DHT22;10787;53.364;-1.480;2023-06-01T00:12:09;11.30;99.90
21259;DHT22;10787;53.364;-1.480;2023-06-01T00:14:53;11.30;99.90
21259;DHT22;10787;53.364;-1.480;2023-06-01T00:17:37;11.30;99.90
21259;DHT22;10787;53.364;-1.480;2023-06-01T00:20:22;11.40;99.90
21259;DHT22;10787;53.364;-1.480;2023-06-01T00:23:08;11.30;99.90
21259;DHT22;10787;53.364;-1.480;2023-06-01T00:25:52;11.30;99.90
21259;DHT22;10787;53.364;-1.480;2023-06-01T00:28:36;11.30;99.90
21259;DHT22;10787;53.364;-1.480;2023-06-01T00:31:20;11.30;99.90
21259;DHT22;10787;53.364;-1.480;2023-06-01T00:34:04;11.20;99.90
21259;DHT22;10787;53.364;-1.480;2023-06-01T00:36:49;11.20;99.90
21259;DHT22;10787;53.364;-1.480;2023-06-01T00:39:34;11.30;99.90
21259;DHT22;10787;53.364;-1.480;2023-06-01T00:42:18;11.30;99.90
21259;DHT22;10787;53.364;-1.480;2023-06-01T00:45:02;11.30;99.90
21259;DHT22;10787;53.364;-1.480;2023-06-01T00:47:47;11.20;99.90
21259;DHT22;10787;53.364;-1.480;2023-06-01T00:50:31;11.20;99.90
21259;DHT22;10787;53.364;-1.480;2023-06-01T00:53:18;11.30;99.90
21259;DHT22;10787;53.364;-1.480;2023-06-01T00:56:02;11.30;99.90
21259;DHT22;10787;53.364;-1.480;2023-06-01T00:58:47;11.30;99.90
21259;DHT22;10787;53.364;-1.480;2023-06-01T01:01:31;11.20;99.90
21259;DHT22;10787;53.364;-1.480;2023-06-01T01:04:18;11.20;99.90
21259;DHT22;10787;53.364;-1.480;2023-06-01T01:07:35;11.10;99.90
21259;DHT22;10787;53.364;-1.480;2023-06-01T01:11:04;11.10;99.90
21259;DHT22;10787;53.364;-1.480;2023-06-01T01:14:01;11.20;99.90
21259;DHT22;10787;53.364;-1.480;2023-06-01T01:17:06;11.10;99.90
21259;DHT22;10787;53.364;-1.480;2023-06-01T01:20:13;11.10;99.90
21259;DHT22;10787;53.364;-1.480;2023-06-01T01:29:06;11.10;99.90
21259;DHT22;10787;53.364;-1.480;2023-06-01T01:31:52;11.00;99.90
21259;DHT22;10787;53.364;-1.480;2023-06-01T01:34:38;11.00;99.90
21259;DHT22;10787;53.364;-1.480;2023-06-01T01:37:25;11.00;99.90
21259;DHT22;10787;53.364;-1.480;2023-06-01T01:40:10;11.00;99.90
21259;DHT22;10787;53.364;-1.480;2023-06-01T01:42:55;11.00;99.90
21259;DHT22;10787;53.364;-1.480;2023-06-01T01:45:40;11.00;99.90
21259;DHT22;10787;53.364;-1.480;2023-06-01T01:48:39;11.00;99.90
21259;DHT22;10787;53.364;-1.480;2023-06-01T01:54:24;11.00;99.90
21259;DHT22;10787;53.364;-1.480;2023-06-01T01:57:09;11.00;99.90
21259;DHT22;10787;53.364;-1.480;2023-06-01T01:59:54;11.00;99.90
21259;DHT22;10787;53.364;-1.480;2023-06-01T02:02:39;11.00;99.90
21259;DHT22;10787;53.364;-1.480;2023-06-01T02:05:23;11.00;99.90
21259;DHT22;10787;53.364;-1.480;2023-06-01T02:08:08;11.00;99.90
21259;DHT22;10787;53.364;-1.480;2023-06-01T02:10:52;10.90;99.90
21259;DHT22;10787;53.364;-1.480;2023-06-01T02:13:36;10.90;99.90
21259;DHT22;10787;53.364;-1.480;2023-06-01T02:16:21;10.90;99.90
21259;DHT22;10787;53.364;-1.480;2023-06-01T02:19:05;10.80;99.90
21259;DHT22;10787;53.364;-1.480;2023-06-01T02:21:49;10.80;99.90
21259;DHT22;10787;53.364;-1.480;2023-06-01T02:24:33;10.90;99.90
21259;DHT22;10787;53.364;-1.480;2023-06-01T02:27:18;10.90;99.90
21259;DHT22;10787;53.364;-1.480;2023-06-01T02:30:02;10.90;99.90
21259;DHT22;10787;53.364;-1.480;2023-06-01T02:32:47;10.80;99.90
21259;DHT22;10787;53.364;-1.480;2023-06-01T02:35:32;10.80;99.90
21259;DHT22;10787;53.364;-1.480;2023-06-01T02:38:17;10.80;99.90
21259;DHT22;10787;53.364;-1.480;2023-06-01T02:41:01;10.80;99.90
21259;DHT22;10787;53.364;-1.480;2023-06-01T02:43:45;10.80;99.90
21259;DHT22;10787;53.364;-1.480;2023-06-01T02:46:30;10.80;99.90
21259;DHT22;10787;53.364;-1.480;2023-06-01T02:49:14;10.70;99.90
21259;DHT22;10787;53.364;-1.480;2023-06-01T02:51:59;10.80;99.90
21259;DHT22;10787;53.364;-1.480;2023-06-01T02:54:43;10.80;99.90
21259;DHT22;10787;53.364;-1.480;2023-06-01T02:57:27;10.70;99.90
21259;DHT22;10787;53.364;-1.480;2023-06-01T03:00:12;10.70;99.90
21259;DHT22;10787;53.364;-1.480;2023-06-01T03:03:02;10.70;99.90
21259;DHT22;10787;53.364;-1.480;2023-06-01T03:05:48;10.70;99.90
21259;DHT22;10787;53.364;-1.480;2023-06-01T03:08:32;10.80;99.90
21259;DHT22;10787;53.364;-1.480;2023-06-01T03:11:18;10.70;99.90
21259;DHT22;10787;53.364;-1.480;2023-06-01T03:14:02;10.80;99.90
21259;DHT22;10787;53.364;-1.480;2023-06-01T03:16:46;10.80;99.90
21259;DHT22;10787;53.364;-1.480;2023-06-01T03:19:30;10.80;99.90
21259;DHT22;10787;53.364;-1.480;2023-06-01T03:22:14;10.70;99.90
21259;DHT22;10787;53.364;-1.480;2023-06-01T03:24:59;10.70;99.90
21259;DHT22;10787;53.364;-1.480;2023-06-01T03:27:44;10.70;99.90
21259;DHT22;10787;53.364;-1.480;2023-06-01T03:30:28;10.80;99.90
21259;DHT22;10787;53.364;-1.480;2023-06-01T03:33:13;10.80;99.90
21259;DHT22;10787;53.364;-1.480;2023-06-01T03:35:58;10.80;99.90
21259;DHT22;10787;53.364;-1.480;2023-06-01T03:38:42;10.80;99.90
21259;DHT22;10787;53.364;-1.480;2023-06-01T03:41:26;10.90;99.90
21259;DHT22;10787;53.364;-1.480;2023-06-01T03:44:11;10.90;99.90
21259;DHT22;10787;53.364;-1.480;2023-06-01T03:46:55;10.80;99.90
21259;DHT22;10787;53.364;-1.480;2023-06-01T03:49:39;10.90;99.90
21259;DHT22;10787;53.364;-1.480;2023-06-01T03:52:25;10.90;99.90
21259;DHT22;10787;53.364;-1.480;2023-06-01T03:55:09;10.80;99.90
21259;DHT22;10787;53.364;-1.480;2023-06-01T03:57:54;10.90;99.90
21259;DHT22;10787;53.364;-1.480;2023-06-01T04:00:39;10.90;99.90
21259;DHT22;10787;53.364;-1.480;2023-06-01T04:03:23;10.90;99.90
21259;DHT22;10787;53.364;-1.480;2023-06-01T04:06:08;10.90;99.90
21259;DHT22;10787;53.364;-1.480;2023-06-01T04:08:56;10.90;99.90
21259;DHT22;10787;53.364;-1.480;2023-06-01T04:11:42;10.90;99.90
21259;DHT22;10787;53.364;-1.480;2023-06-01T04:14:27;10.90;99.90
21259;DHT22;10787;53.364;-1.480;2023-06-01T04:17:11;10.90;99.90
21259;DHT22;10787;53.364;-1.480;2023-06-01T04:19:55;10.90;99.90
21259;DHT22;10787;53.364;-1.480;2023-06-01T04:22:40;10.90;99.90
21259;DHT22;10787;53.364;-1.480;2023-06-01T04:25:24;10.80;99.90
21259;DHT22;10787;53.364;-1.480;2023-06-01T04:28:08;10.90;99.90
21259;DHT22;10787;53.364;-1.480;2023-06-01T04:30:54;10.80;99.90
21259;DHT22;10787;53.364;-1.480;2023-06-01T04:33:39;10.90;99.90
21259;DHT22;10787;53.364;-1.480;2023-06-01T04:36:24;10.90;99.90
21259;DHT22;10787;53.364;-1.480;2023-06-01T04:39:09;11.00;99.90
21259;DHT22;10787;53.364;-1.480;2023-06-01T04:41:53;10.90;99.90
21259;DHT22;10787;53.364;-1.480;2023-06-01T04:44:39;10.90;99.90
21259;DHT22;10787;53.364;-1.480;2023-06-01T04:47:25;11.00;99.90
21259;DHT22;10787;53.364;-1.480;2023-06-01T04:50:12;11.00;99.90
21259;DHT22;10787;53.364;-1.480;2023-06-01T04:52:59;11.00;99.90
21259;DHT22;10787;53.364;-1.480;2023-06-01T04:55:43;11.10;99.90
21259;DHT22;10787;53.364;-1.480;2023-06-01T04:58:28;11.10;99.90
21259;DHT22;10787;53.364;-1.480;2023-06-01T05:01:12;11.10;99.90
21259;DHT22;10787;53.364;-1.480;2023-06-01T05:03:59;11.10;99.90
21259;DHT22;10787;53.364;-1.480;2023-06-01T05:06:44;11.10;99.90
21259;DHT22;10787;53.364;-1.480;2023-06-01T05:09:28;11.20;99.90
21259;DHT22;10787;53.364;-1.480;2023-06-01T05:12:13;11.20;99.90
21259;DHT22;10787;53.364;-1.480;2023-06-01T05:14:57;11.20;99.90
21259;DHT22;10787;53.364;-1.480;2023-06-01T05:17:41;11.20;99.90
21259;DHT22;10787;53.364;-1.480;2023-06-01T05:20:25;11.20;99.90
21259;DHT22;10787;53.364;-1.480;2023-06-01T05:23:10;11.20;99.90
21259;DHT22;10787;53.364;-1.480;2023-06-01T05:25:55;11.20;99.90
21259;DHT22;10787;53.364;-1.480;2023-06-01T05:28:46;11.20;99.90
21259;DHT22;10787;53.364;-1.480;2023-06-01T05:31:30;11.20;99.90
21259;DHT22;10787;53.364;-1.480;2023-06-01T05:34:14;11.30;99.90
21259;DHT22;10787;53.364;-1.480;2023-06-01T05:37:00;11.30;99.90
21259;DHT22;10787;53.364;-1.480;2023-06-01T05:39:44;11.30;99.90
21259;DHT22;10787;53.364;-1.480;2023-06-01T05:42:28;11.30;99.90
21259;DHT22;10787;53.364;-1.480;2023-06-01T05:45:12;11.30;99.90
21259;DHT22;10787;53.364;-1.480;2023-06-01T05:47:57;11.50;99.90
21259;DHT22;10787;53.364;-1.480;2023-06-01T05:50:42;11.70;99.90
21259;DHT22;10787;53.364;-1.480;2023-06-01T05:53:26;11.80;99.90
21259;DHT22;10787;53.364;-1.480;2023-06-01T05:56:11;11.90;99.90
21259;DHT22;10787;53.364;-1.480;2023-06-01T05:58:56;11.90;99.90
21259;DHT22;10787;53.364;-1.480;2023-06-01T06:01:40;11.90;99.90
21259;DHT22;10787;53.364;-1.480;2023-06-01T06:04:24;11.80;99.90
21259;DHT22;10787;53.364;-1.480;2023-06-01T06:07:09;11.70;99.90
21259;DHT22;10787;53.364;-1.480;2023-06-01T06:09:54;11.70;99.90
21259;DHT22;10787;53.364;-1.480;2023-06-01T06:12:39;11.80;99.90
21259;DHT22;10787;53.364;-1.480;2023-06-01T06:15:23;11.80;99.90
21259;DHT22;10787;53.364;-1.480;2023-06-01T06:18:08;11.80;99.90
21259;DHT22;10787;53.364;-1.480;2023-06-01T06:20:52;12.00;99.90
21259;DHT22;10787;53.364;-1.480;2023-06-01T06:23:37;12.00;99.90
21259;DHT22;10787;53.364;-1.480;2023-06-01T06:26:23;12.10;99.90
21259;DHT22;10787;53.364;-1.480;2023-06-01T06:29:08;12.10;99.90
21259;DHT22;10787;53.364;-1.480;2023-06-01T06:31:52;12.10;99.90
21259;DHT22;10787;53.364;-1.480;2023-06-01T06:34:36;12.20;99.90
21259;DHT22;10787;53.364;-1.480;2023-06-01T06:37:20;12.20;99.90
21259;DHT22;10787;53.364;-1.480;2023-06-01T06:40:05;12.20;99.90
21259;DHT22;10787;53.364;-1.480;2023-06-01T06:42:50;12.30;99.90
21259;DHT22;10787;53.364;-1.480;2023-06-01T06:45:37;12.40;99.90
21259;DHT22;10787;53.364;-1.480;2023-06-01T06:48:21;12.40;99.90
21259;DHT22;10787;53.364;-1.480;2023-06-01T06:51:05;12.30;99.90
21259;DHT22;10787;53.364;-1.480;2023-06-01T06:53:58;12.20;99.90
21259;DHT22;10787;53.364;-1.480;2023-06-01T06:56:42;12.10;99.90
21259;DHT22;10787;53.364;-1.480;2023-06-01T06:59:27;12.10;99.90
21259;DHT22;10787;53.364;-1.480;2023-06-01T07:02:11;12.20;99.90
21259;DHT22;10787;53.364;-1.480;2023-06-01T07:04:55;12.30;99.90
21259;DHT22;10787;53.364;-1.480;2023-06-01T07:07:40;12.30;99.90
21259;DHT22;10787;53.364;-1.480;2023-06-01T07:10:27;12.40;99.90
21259;DHT22;10787;53.364;-1.480;2023-06-01T07:13:12;12.40;99.90
21259;DHT22;10787;53.364;-1.480;2023-06-01T07:16:00;12.40;99.90
21259;DHT22;10787;53.364;-1.480;2023-06-01T07:18:45;12.50;99.90
21259;DHT22;10787;53.364;-1.480;2023-06-01T07:21:32;12.60;99.90
21259;DHT22;10787;53.364;-1.480;2023-06-01T07:24:20;12.70;99.90
21259;DHT22;10787;53.364;-1.480;2023-06-01T07:27:05;12.80;99.90
21259;DHT22;10787;53.364;-1.480;2023-06-01T07:29:49;13.00;99.90
21259;DHT22;10787;53.364;-1.480;2023-06-01T07:32:39;13.10;99.90
21259;DHT22;10787;53.364;-1.480;2023-06-01T07:35:26;13.30;99.90
21259;DHT22;10787;53.364;-1.480;2023-06-01T07:38:11;13.40;99.90
21259;DHT22;10787;53.364;-1.480;2023-06-01T07:40:56;13.50;99.90
21259;DHT22;10787;53.364;-1.480;2023-06-01T07:43:40;13.50;99.90
21259;DHT22;10787;53.364;-1.480;2023-06-01T07:46:25;13.60;99.90
21259;DHT22;10787;53.364;-1.480;2023-06-01T07:49:13;13.70;99.90
21259;DHT22;10787;53.364;-1.480;2023-06-01T07:51:58;13.80;99.90
21259;DHT22;10787;53.364;-1.480;2023-06-01T07:54:42;13.80;99.90
21259;DHT22;10787;53.364;-1.480;2023-06-01T07:57:27;13.60;99.90
21259;DHT22;10787;53.364;-1.480;2023-06-01T08:00:12;13.60;99.90
21259;DHT22;10787;53.364;-1.480;2023-06-01T08:03:02;13.60;99.90
21259;DHT22;10787;53.364;-1.480;2023-06-01T08:05:49;13.60;99.90
21259;DHT22;10787;53.364;-1.480;2023-06-01T08:08:35;13.70;99.90
21259;DHT22;10787;53.364;-1.480;2023-06-01T08:11:19;13.80;99.90
21259;DHT22;10787;53.364;-1.480;2023-06-01T08:14:04;14.10;99.90
21259;DHT22;10787;53.364;-1.480;2023-06-01T08:16:51;14.20;99.90
21259;DHT22;10787;53.364;-1.480;2023-06-01T08:19:35;14.20;99.90
21259;DHT22;10787;53.364;-1.480;2023-06-01T08:22:20;14.30;99.90
21259;DHT22;10787;53.364;-1.480;2023-06-01T08:25:05;14.40;99.90
21259;DHT22;10787;53.364;-1.480;2023-06-01T08:27:49;14.40;99.90
21259;DHT22;10787;53.364;-1.480;2023-06-01T08:30:34;14.40;99.90
21259;DHT22;10787;53.364;-1.480;2023-06-01T08:33:19;14.40;99.90
21259;DHT22;10787;53.364;-1.480;2023-06-01T08:36:04;14.30;99.90
21259;DHT22;10787;53.364;-1.480;2023-06-01T08:38:49;14.20;99.90
21259;DHT22;10787;53.364;-1.480;2023-06-01T08:41:42;14.20;99.90
21259;DHT22;10787;53.364;-1.480;2023-06-01T08:44:38;14.30;99.90
21259;DHT22;10787;53.364;-1.480;2023-06-01T08:47:24;14.30;99.90
21259;DHT22;10787;53.364;-1.480;2023-06-01T08:50:10;14.40;99.90
21259;DHT22;10787;53.364;-1.480;2023-06-01T08:52:57;14.40;99.90
21259;DHT22;10787;53.364;-1.480;2023-06-01T08:55:44;14.40;99.90
21259;DHT22;10787;53.364;-1.480;2023-06-01T08:58:30;14.50;99.90
21259;DHT22;10787;53.364;-1.480;2023-06-01T09:01:17;14.60;99.90
21259;DHT22;10787;53.364;-1.480;2023-06-01T09:04:05;14.70;99.90
21259;DHT22;10787;53.364;-1.480;2023-06-01T09:06:52;14.80;99.90
21259;DHT22;10787;53.364;-1.480;2023-06-01T09:09:36;14.80;99.90
21259;DHT22;10787;53.364;-1.480;2023-06-01T09:12:28;14.90;99.90
21259;DHT22;10787;53.364;-1.480;2023-06-01T09:15:22;14.90;99.90
21259;DHT22;10787;53.364;-1.480;2023-06-01T09:18:08;14.90;99.90
21259;DHT22;10787;53.364;-1.480;2023-06-01T09:20:54;14.90;99.90
21259;DHT22;10787;53.364;-1.480;2023-06-01T09:23:41;14.80;99.90
21259;DHT22;10787;53.364;-1.480;2023-06-01T09:26:26;14.90;99.90
21259;DHT22;10787;53.364;-1.480;2023-06-01T09:29:11;15.10;99.90
21259;DHT22;10787;53.364;-1.480;2023-06-01T09:32:01;15.20;99.90
21259;DHT22;10787;53.364;-1.480;2023-06-01T09:34:47;15.50;99.90
21259;DHT22;10787;53.364;-1.480;2023-06-01T09:37:33;15.70;99.90
21259;DHT22;10787;53.364;-1.480;2023-06-01T09:40:18;16.00;99.90
21259;DHT22;10787;53.364;-1.480;2023-06-01T09:43:19;16.30;99.90
21259;DHT22;10787;53.364;-1.480;2023-06-01T09:46:09;16.50;99.90
21259;DHT22;10787;53.364;-1.480;2023-06-01T09:49:06;16.80;99.90
21259;DHT22;10787;53.364;-1.480;2023-06-01T09:52:11;16.80;99.90
21259;DHT22;10787;53.364;-1.480;2023-06-01T09:55:08;16.90;99.90
21259;DHT22;10787;53.364;-1.480;2023-06-01T09:58:17;16.90;99.90
21259;DHT22;10787;53.364;-1.480;2023-06-01T10:01:02;16.80;99.90
21259;DHT22;10787;53.364;-1.480;2023-06-01T10:03:49;16.80;99.90
21259;DHT22;10787;53.364;-1.480;2023-06-01T10:06:39;16.70;99.90
21259;DHT22;10787;53.364;-1.480;2023-06-01T10:09:25;16.50;99.90
21259;DHT22;10787;53.364;-1.480;2023-06-01T10:12:10;16.70;99.90
21259;DHT22;10787;53.364;-1.480;2023-06-01T10:14:58;16.90;99.90
21259;DHT22;10787;53.364;-1.480;2023-06-01T10:17:43;16.90;99.90
21259;DHT22;10787;53.364;-1.480;2023-06-01T10:20:28;16.90;99.90
21259;DHT22;10787;53.364;-1.480;2023-06-01T10:23:13;17.00;99.90
21259;DHT22;10787;53.364;-1.480;2023-06-01T10:25:59;17.00;99.90
21259;DHT22;10787;53.364;-1.480;2023-06-01T10:28:50;16.90;99.90
21259;DHT22;10787;53.364;-1.480;2023-06-01T10:31:36;16.80;99.90
21259;DHT22;10787;53.364;-1.480;2023-06-01T10:34:43;16.70;99.90
21259;DHT22;10787;53.364;-1.480;2023-06-01T10:37:28;16.40;99.90
21259;DHT22;10787;53.364;-1.480;2023-06-01T10:43:05;16.30;99.90
21259;DHT22;10787;53.364;-1.480;2023-06-01T10:45:50;16.30;99.90
21259;DHT22;10787;53.364;-1.480;2023-06-01T10:48:55;16.50;99.90
21259;DHT22;10787;53.364;-1.480;2023-06-01T10:51:40;16.60;99.90
21259;DHT22;10787;53.364;-1.480;2023-06-01T10:54:27;17.00;99.90
21259;DHT22;10787;53.364;-1.480;2023-06-01T10:57:23;17.10;99.90
21259;DHT22;10787;53.364;-1.480;2023-06-01T11:00:24;17.20;99.90
21259;DHT22;10787;53.364;-1.480;2023-06-01T11:03:11;17.10;99.90
21259;DHT22;10787;53.364;-1.480;2023-06-01T11:05:56;17.20;99.90
21259;DHT22;10787;53.364;-1.480;2023-06-01T11:14:32;16.80;99.90
21259;DHT22;10787;53.364;-1.480;2023-06-01T11:17:29;16.70;99.90
21259;DHT22;10787;53.364;-1.480;2023-06-01T11:20:14;16.70;99.90
21259;DHT22;10787;53.364;-1.480;2023-06-01T11:23:00;16.70;99.90
21259;DHT22;10787;53.364;-1.480;2023-06-01T11:25:52;16.60;99.90
21259;DHT22;10787;53.364;-1.480;2023-06-01T11:28:37;16.60;99.90
21259;DHT22;10787;53.364;-1.480;2023-06-01T11:31:28;16.50;99.90
21259;DHT22;10787;53.364;-1.480;2023-06-01T11:34:31;16.50;99.90
21259;DHT22;10787;53.364;-1.480;2023-06-01T11:37:20;16.40;99.90
21259;DHT22;10787;53.364;-1.480;2023-06-01T11:40:07;16.50;99.90
21259;DHT22;10787;53.364;-1.480;2023-06-01T11:42:54;16.70;99.90
21259;DHT22;10787;53.364;-1.480;2023-06-01T11:45:39;17.00;99.90
21259;DHT22;10787;53.364;-1.480;2023-06-01T11:48:27;17.30;99.90
21259;DHT22;10787;53.364;-1.480;2023-06-01T11:51:17;17.50;99.90
21259;DHT22;10787;53.364;-1.480;2023-06-01T11:54:01;17.70;99.90
21259;DHT22;10787;53.364;-1.480;2023-06-01T11:56:47;17.90;99.90
21259;DHT22;10787;53.364;-1.480;2023-06-01T11:59:47;18.10;99.90
21259;DHT22;10787;53.364;-1.480;2023-06-01T12:02:32;18.10;99.90
21259;DHT22;10787;53.364;-1.480;2023-06-01T12:05:16;17.80;99.90
21259;DHT22;10787;53.364;-1.480;2023-06-01T12:08:00;17.80;99.90
21259;DHT22;10787;53.364;-1.480;2023-06-01T12:10:45;17.70;99.90
21259;DHT22;10787;53.364;-1.480;2023-06-01T12:13:31;17.30;99.90
21259;DHT22;10787;53.364;-1.480;2023-06-01T12:16:16;16.90;99.90
21259;DHT22;10787;53.364;-1.480;2023-06-01T12:19:10;16.60;99.90
21259;DHT22;10787;53.364;-1.480;2023-06-01T12:21:56;16.50;99.90
21259;DHT22;10787;53.364;-1.480;2023-06-01T12:25:05;16.40;99.90
21259;DHT22;10787;53.364;-1.480;2023-06-01T12:28:06;16.70;99.90
21259;DHT22;10787;53.364;-1.480;2023-06-01T12:31:13;16.70;99.90
21259;DHT22;10787;53.364;-1.480;2023-06-01T12:34:01;16.70;99.90
21259;DHT22;10787;53.364;-1.480;2023-06-01T12:36:51;16.60;99.90
21259;DHT22;10787;53.364;-1.480;2023-06-01T12:39:38;16.60;99.90
21259;DHT22;10787;53.364;-1.480;2023-06-01T12:42:40;16.50;99.90
21259;DHT22;10787;53.364;-1.480;2023-06-01T12:45:43;16.60;99.90
21259;DHT22;10787;53.364;-1.480;2023-06-01T12:48:38;16.70;99.90
21259;DHT22;10787;53.364;-1.480;2023-06-01T12:51:25;17.10;99.90
21259;DHT22;10787;53.364;-1.480;2023-06-01T12:54:13;17.30;99.90
21259;DHT22;10787;53.364;-1.480;2023-06-01T12:56:57;17.40;99.90
21259;DHT22;10787;53.364;-1.480;2023-06-01T12:59:42;17.60;99.90
21259;DHT22;10787;53.364;-1.480;2023-06-01T13:02:26;17.70;99.90
21259;DHT22;10787;53.364;-1.480;2023-06-01T13:05:16;17.90;99.90
21259;DHT22;10787;53.364;-1.480;2023-06-01T13:08:03;17.80;99.90
21259;DHT22;10787;53.364;-1.480;2023-06-01T13:10:49;17.80;99.90
21259;DHT22;10787;53.364;-1.480;2023-06-01T13:13:35;17.70;99.90
21259;DHT22;10787;53.364;-1.480;2023-06-01T13:16:20;17.70;99.90
21259;DHT22;10787;53.364;-1.480;2023-06-01T13:19:14;17.50;99.90
21259;DHT22;10787;53.364;-1.480;2023-06-01T13:21:58;17.40;99.90
21259;DHT22;10787;53.364;-1.480;2023-06-01T13:24:42;17.20;99.90
21259;DHT22;10787;53.364;-1.480;2023-06-01T13:27:26;17.00;99.90
21259;DHT22;10787;53.364;-1.480;2023-06-01T13:30:11;16.80;99.90
21259;DHT22;10787;53.364;-1.480;2023-06-01T13:32:57;16.70;99.90
21259;DHT22;10787;53.364;-1.480;2023-06-01T13:35:41;16.60;99.90
21259;DHT22;10787;53.364;-1.480;2023-06-01T13:38:26;16.50;99.90
21259;DHT22;10787;53.364;-1.480;2023-06-01T13:41:10;16.40;99.90
21259;DHT22;10787;53.364;-1.480;2023-06-01T13:43:55;16.30;99.90
21259;DHT22;10787;53.364;-1.480;2023-06-01T13:46:39;16.30;99.90
21259;DHT22;10787;53.364;-1.480;2023-06-01T13:49:23;16.20;99.90
21259;DHT22;10787;53.364;-1.480;2023-06-01T13:52:08;16.10;99.90
21259;DHT22;10787;53.364;-1.480;2023-06-01T13:54:53;16.10;99.90
21259;DHT22;10787;53.364;-1.480;2023-06-01T13:57:37;16.10;99.90
21259;DHT22;10787;53.364;-1.480;2023-06-01T14:00:22;16.10;99.90
21259;DHT22;10787;53.364;-1.480;2023-06-01T14:03:06;16.10;99.90
21259;DHT22;10787;53.364;-1.480;2023-06-01T14:05:51;16.10;99.90
21259;DHT22;10787;53.364;-1.480;2023-06-01T14:08:35;16.00;99.90
21259;DHT22;10787;53.364;-1.480;2023-06-01T14:11:19;15.80;99.90
21259;DHT22;10787;53.364;-1.480;2023-06-01T14:14:04;15.80;99.90
21259;DHT22;10787;53.364;-1.480;2023-06-01T14:16:48;15.80;99.90
21259;DHT22;10787;53.364;-1.480;2023-06-01T14:19:33;15.90;99.90
21259;DHT22;10787;53.364;-1.480;2023-06-01T14:22:17;16.20;99.90
21259;DHT22;10787;53.364;-1.480;2023-06-01T14:25:02;16.50;99.90
21259;DHT22;10787;53.364;-1.480;2023-06-01T14:27:47;16.70;99.90
21259;DHT22;10787;53.364;-1.480;2023-06-01T14:30:31;17.00;99.90
21259;DHT22;10787;53.364;-1.480;2023-06-01T14:33:15;17.30;99.90
21259;DHT22;10787;53.364;-1.480;2023-06-01T14:36:01;17.40;99.90
21259;DHT22;10787;53.364;-1.480;2023-06-01T14:38:45;17.30;99.90
21259;DHT22;10787;53.364;-1.480;2023-06-01T14:41:29;17.10;99.90
21259;DHT22;10787;53.364;-1.480;2023-06-01T14:44:14;17.00;99.90
21259;DHT22;10787;53.364;-1.480;2023-06-01T14:46:59;17.20;99.90
21259;DHT22;10787;53.364;-1.480;2023-06-01T14:49:43;17.30;99.90
21259;DHT22;10787;53.364;-1.480;2023-06-01T14:52:28;17.30;99.90
21259;DHT22;10787;53.364;-1.480;2023-06-01T14:55:12;17.40;99.90
21259;DHT22;10787;53.364;-1.480;2023-06-01T14:57:56;17.40;99.90
21259;DHT22;10787;53.364;-1.480;2023-06-01T15:00:41;17.20;99.90
21259;DHT22;10787;53.364;-1.480;2023-06-01T15:03:26;17.10;99.90
21259;DHT22;10787;53.364;-1.480;2023-06-01T15:06:10;17.00;99.90
21259;DHT22;10787;53.364;-1.480;2023-06-01T15:08:54;17.10;99.90
21259;DHT22;10787;53.364;-1.480;2023-06-01T15:11:38;17.20;99.90
21259;DHT22;10787;53.364;-1.480;2023-06-01T15:14:22;17.30;99.90
21259;DHT22;10787;53.364;-1.480;2023-06-01T15:17:07;17.40;99.90
21259;DHT22;10787;53.364;-1.480;2023-06-01T15:19:51;17.40;99.90
21259;DHT22;10787;53.364;-1.480;2023-06-01T15:22:35;17.40;99.90
21259;DHT22;10787;53.364;-1.480;2023-06-01T15:25:19;17.50;99.90
21259;DHT22;10787;53.364;-1.480;2023-06-01T15:28:03;17.30;99.90
21259;DHT22;10787;53.364;-1.480;2023-06-01T15:30:48;17.20;99.90
21259;DHT22;10787;53.364;-1.480;2023-06-01T15:33:32;17.20;99.90
21259;DHT22;10787;53.364;-1.480;2023-06-01T15:36:16;17.10;99.90
21259;DHT22;10787;53.364;-1.480;2023-06-01T15:39:01;16.80;99.90
21259;DHT22;10787;53.364;-1.480;2023-06-01T15:41:45;16.70;99.90
21259;DHT22;10787;53.364;-1.480;2023-06-01T15:44:40;16.60;99.90
21259;DHT22;10787;53.364;-1.480;2023-06-01T15:47:31;16.60;99.90
21259;DHT22;10787;53.364;-1.480;2023-06-01T15:50:17;16.70;99.90
21259;DHT22;10787;53.364;-1.480;2023-06-01T15:53:04;16.70;99.90
21259;DHT22;10787;53.364;-1.480;2023-06-01T15:55:51;16.60;99.90
21259;DHT22;10787;53.364;-1.480;2023-06-01T15:58:35;16.50;99.90
21259;DHT22;10787;53.364;-1.480;2023-06-01T16:01:19;16.50;99.90
21259;DHT22;10787;53.364;-1.480;2023-06-01T16:04:06;16.40;99.90
21259;DHT22;10787;53.364;-1.480;2023-06-01T16:06:50;16.30;99.90
21259;DHT22;10787;53.364;-1.480;2023-06-01T16:09:37;16.40;99.90
21259;DHT22;10787;53.364;-1.480;2023-06-01T16:12:21;16.40;99.90
21259;DHT22;10787;53.364;-1.480;2023-06-01T16:15:08;16.40;99.90
21259;DHT22;10787;53.364;-1.480;2023-06-01T16:17:56;16.50;99.90
21259;DHT22;10787;53.364;-1.480;2023-06-01T16:20:40;16.50;99.90
21259;DHT22;10787;53.364;-1.480;2023-06-01T16:23:25;16.60;99.90
21259;DHT22;10787;53.364;-1.480;2023-06-01T16:26:11;16.50;99.90
21259;DHT22;10787;53.364;-1.480;2023-06-01T16:28:55;16.50;99.90
21259;DHT22;10787;53.364;-1.480;2023-06-01T16:31:39;16.40;99.90
21259;DHT22;10787;53.364;-1.480;2023-06-01T16:34:23;16.30;99.90
21259;DHT22;10787;53.364;-1.480;2023-06-01T16:37:08;16.40;99.90
21259;DHT22;10787;53.364;-1.480;2023-06-01T16:39:52;16.30;99.90
21259;DHT22;10787;53.364;-1.480;2023-06-01T16:42:37;16.10;99.90
21259;DHT22;10787;53.364;-1.480;2023-06-01T16:45:21;16.00;99.90
21259;DHT22;10787;53.364;-1.480;2023-06-01T16:48:05;15.90;99.90
21259;DHT22;10787;53.364;-1.480;2023-06-01T16:50:51;15.90;99.90
21259;DHT22;10787;53.364;-1.480;2023-06-01T16:53:35;15.80;99.90
21259;DHT22;10787;53.364;-1.480;2023-06-01T16:56:19;15.60;99.90
21259;DHT22;10787;53.364;-1.480;2023-06-01T16:59:04;15.60;99.90
21259;DHT22;10787;53.364;-1.480;2023-06-01T17:01:48;15.50;99.90
21259;DHT22;10787;53.364;-1.480;2023-06-01T17:04:32;15.40;99.90
21259;DHT22;10787;53.364;-1.480;2023-06-01T17:07:17;15.30;99.90
21259;DHT22;10787;53.364;-1.480;2023-06-01T17:10:02;15.20;99.90
21259;DHT22;10787;53.364;-1.480;2023-06-01T17:12:46;15.00;99.90
21259;DHT22;10787;53.364;-1.480;2023-06-01T17:15:31;15.10;99.90
21259;DHT22;10787;53.364;-1.480;2023-06-01T17:18:16;15.00;99.90
21259;DHT22;10787;53.364;-1.480;2023-06-01T17:21:00;15.00;99.90
21259;DHT22;10787;53.364;-1.480;2023-06-01T17:23:45;15.00;99.90
21259;DHT22;10787;53.364;-1.480;2023-06-01T17:26:29;15.00;99.90
21259;DHT22;10787;53.364;-1.480;2023-06-01T17:29:13;15.00;99.90
21259;DHT22;10787;53.364;-1.480;2023-06-01T17:31:57;15.00;99.90